Flight Track Log - Related Links

Times and Time Zones

All times are in EDT time to prevent confusion due to time zone crossing. See the UPS110 flight status page for this flight to view local times or setup timezone preferences in your user account.

Time Position Orientation Groundspeed Altitude Reporting Facility
EDT Latitude Longitude Course Direction KTS MPH feet Rate Location/Type
Sun 11:21:54 61.1900 -150.0090 180° South 135 155  Level FlightAware ADS-B
Sun 11:22:18 61.1750 -150.0050 173° South 152 175 1,800 4,000 Climbing FlightAware ADS-B
Sun 11:22:24 61.1700 -150.0080 196° South 165 190 2,000 1,500 Climbing FlightAware ADS-B
Sun 11:22:30 61.1670 -150.0120 213° Southwest 172 198 2,100 1,600 Climbing FlightAware ADS-B
Sun 11:22:39 61.1600 -150.0270 226° Southwest 204 235 2,400 1,263 Climbing FlightAware ADS-B
Sun 11:22:49 61.1560 -150.0460 246° West 232 267 2,500 857 Climbing FlightAware ADS-B
Sun 11:22:53 61.1550 -150.0550 257° West 240 276 2,600 3,000 Climbing FlightAware ADS-B
Sun 11:23:17 61.1660 -150.1060 294° West 253 291 3,900 2,681 Climbing FlightAware ADS-B
Sun 11:23:40 61.1882 -150.1456 319° Northwest 284 327 4,700 2,429 Climbing FlightAware ADS-B
Sun 11:23:59 61.2048 -150.1721 322° Northwest 304 350 5,600 3,333 Climbing FlightAware ADS-B
Sun 11:24:16 61.2287 -150.2086 324° Northwest 309 356 6,700 3,659 Climbing FlightAware ADS-B
Sun 11:24:40 61.2555 -150.2529 322° Northwest 324 373 8,100 3,097 Climbing FlightAware ADS-B
Sun 11:24:47 61.2626 -150.2681 314° West 332 382 8,300 2,640 Climbing FlightAware ADS-B
Sun 11:25:05 61.2796 -150.3187 305° West 337 388 9,200 3,273 Climbing FlightAware ADS-B
Sun 11:25:20 61.2846 -150.3412 295° West 325 374 10,100 3,943 Climbing FlightAware ADS-B
Sun 11:25:40 61.2898 -150.4129 279° West 306 352 11,500 2,644 Climbing FlightAware ADS-B
Sun 11:26:19 61.2895 -150.5368 270° West 360 414 12,700 2,314 Climbing FlightAware ADS-B
Sun 11:26:50 61.2897 -150.6521 270° West 375 432 14,200 3,600 Climbing FlightAware ADS-B
Sun 11:27:29 61.2890 -150.7941 269° West 375 432 16,900 3,538 Climbing FlightAware ADS-B
Sun 11:28:08 61.2886 -150.9331 270° West 391 450 18,800 2,197 Climbing FlightAware ADS-B
Sun 11:28:40 61.2882 -151.0567 270° West 422 486 19,500 1,355 Climbing FlightAware ADS-B
Sun 11:29:10 61.2878 -151.1869 270° West 449 517 20,200 2,500 Climbing FlightAware ADS-B
Sun 11:29:40 61.2878 -151.3163 270° West 444 511 22,000 3,049 Climbing FlightAware ADS-B
Sun 11:30:11 61.2875 -151.4389 270° West 451 519 23,300 2,361 Climbing FlightAware ADS-B
Sun 11:30:41 61.2865 -151.5787 269° West 461 531 24,400 1,913 Climbing FlightAware ADS-B
Sun 11:31:20 61.2853 -151.7505 269° West 479 551 25,500 1,971 Climbing FlightAware ADS-B
Sun 11:31:51 61.2842 -151.8982 269° West 484 557 26,700 2,656 Climbing FlightAware ADS-B
Sun 11:32:21 61.2832 -152.0355 269° West 479 551 28,200 2,239 Climbing FlightAware ADS-B
Sun 11:32:58 61.2840 -152.2097 271° West 493 567 29,200 1,217 Climbing FlightAware ADS-B
Sun 11:33:30 61.2850 -152.3475 271° West 507 583 29,600 1,355 Climbing FlightAware ADS-B
Sun 11:34:00 61.2858 -152.5008 271° West 508 585 30,600 1,969 Climbing FlightAware ADS-B
Sun 11:34:34 61.2860 -152.6740 270° West 502 578 31,700 2,108 Climbing FlightAware ADS-B
Sun 11:34:37 61.2864 -152.6788 280° West 502 578 31,900 250 Climbing FlightAware ADS-B
Sun 11:35:46 61.2860 -153.0080 270° West 493 567 32,000 59 Climbing FlightAware ADS-B
Sun 11:36:18 61.2860 -153.1670 270° West 495 570 32,000  Level FlightAware ADS-B
Sun 11:36:54 61.2850 -153.3360 269° West 496 571 32,000  Level FlightAware ADS-B
Sun 11:37:30 61.2850 -153.5060 270° West 498 573 32,000  Level FlightAware ADS-B
Sun 11:38:06 61.2840 -153.6710 269° West 499 574 32,000  Level FlightAware ADS-B
Sun 11:38:38 61.2830 -153.8310 269° West 500 575 32,000  Level FlightAware ADS-B
Sun 11:39:11 61.2810 -153.9920 269° West 499 574 32,000  Level FlightAware ADS-B
Sun 11:39:51 61.2800 -154.1820 269° West 498 573 32,000  Level FlightAware ADS-B
Sun 11:40:26 61.2780 -154.3490 269° West 497 572 32,000  Level FlightAware ADS-B
Sun 11:40:58 61.2760 -154.4990 268° West 496 571 32,000  Level FlightAware ADS-B
Sun 11:41:34 61.2740 -154.6760 269° West 498 573 32,000  Level FlightAware ADS-B
Sun 11:42:21 61.2710 -154.8760 268° West 499 574 32,000  Level FlightAware ADS-B
Sun 11:42:58 61.2680 -155.0270 268° West 499 574 32,000  Level FlightAware ADS-B
Sun 11:43:34 61.2660 -155.1740 268° West 499 574 32,000  Level FlightAware ADS-B
Sun 11:44:10 61.2630 -155.3210 268° West 499 574 32,000  Level FlightAware ADS-B
Sun 11:44:46 61.2610 -155.4680 268° West 499 574 32,000  Level FlightAware ADS-B
Sun 11:45:22 61.2580 -155.6140 268° West 499 574 32,000  Level FlightAware ADS-B
Sun 11:45:58 61.2560 -155.7610 268° West 499 574 32,000  Level FlightAware ADS-B
Sun 11:46:34 61.2530 -155.9080 268° West 499 574 32,000  Level FlightAware ADS-B
Sun 11:47:10 61.2510 -156.0550 268° West 499 574 32,000  Level FlightAware ADS-B
Sun 11:47:46 61.2480 -156.2020 268° West 499 574 32,000  Level FlightAware ADS-B
Sun 11:48:22 61.2460 -156.3480 268° West 499 574 32,000  Level FlightAware ADS-B
Sun 11:48:59 61.2430 -156.4990 268° West 499 574 32,000  Level FlightAware ADS-B
Sun 11:49:45 61.2400 -156.6870 268° West 499 574 32,000  Level FlightAware ADS-B
Sun 11:50:22 61.2380 -156.8370 268° West 499 574 32,000  Level FlightAware ADS-B
Sun 11:51:00 61.2350 -156.9920 268° West 499 574 32,000  Level FlightAware ADS-B
Sun 11:51:34 61.2330 -157.1310 268° West 499 574 32,000  Level FlightAware ADS-B
Sun 11:52:07 61.2500 -157.6667 268° West 490 564 32,000  Level Anchorage Center
Sun 11:53:07 61.2333 -157.9667 264° West 490 564 32,000  Level Anchorage Center
Sun 11:54:08 61.2333 -158.2500 270° West 490 564 32,000  Level Anchorage Center
Sun 11:55:08 61.2333 -158.5333 270° West 490 564 32,000  Level Anchorage Center
Sun 11:56:08 61.2333 -158.8167 270° West 480 552 32,000  Level Anchorage Center
Sun 11:57:09 61.2333 -159.1000 270° West 490 564 32,000  Level Anchorage Center
Sun 11:58:09 61.2333 -159.3833 270° West 480 552 32,000  Level Anchorage Center
Sun 11:59:09 61.2167 -159.6667 263° West 490 564 32,000  Level Anchorage Center
Sun 12:00:10 61.2167 -159.9500 270° West 490 564 32,000  Level Anchorage Center
Sun 12:01:10 61.2000 -160.2333 263° West 480 552 32,000  Level Anchorage Center
Sun 12:02:11 61.2000 -160.5000 270° West 480 552 32,000  Level Anchorage Center
Sun 12:03:11 61.1833 -160.7833 263° West 490 564 32,000  Level Anchorage Center
Sun 12:04:11 61.1833 -161.0667 270° West 490 564 32,000  Level Anchorage Center
Sun 12:05:12 61.1667 -161.3500 263° West 480 552 32,000  Level Anchorage Center
Sun 12:06:12 61.1667 -161.6333 270° West 490 564 32,000  Level Anchorage Center
Sun 12:07:12 61.1500 -161.9000 263° West 480 552 32,000  Level Anchorage Center
Sun 12:08:13 61.1500 -162.1833 270° West 470 541 32,000  Level Anchorage Center
Sun 12:09:13 61.1333 -162.4500 263° West 480 552 32,000  Level Anchorage Center
Sun 12:10:13 61.1167 -162.7333 263° West 480 552 32,000  Level Anchorage Center
Sun 12:11:14 61.1000 -163.0000 263° West 470 541 32,000  Level Anchorage Center
Sun 12:12:14 61.0667 -163.2667 256° West 480 552 32,000  Level Anchorage Center
Sun 12:13:14 61.0333 -163.5500 256° West 480 552 32,000  Level Anchorage Center
Sun 12:14:15 61.0000 -163.8167 256° West 480 552 32,000  Level Anchorage Center
Sun 12:15:15 60.9500 -164.0667 248° West 480 552 32,000  Level Anchorage Center
Sun 12:16:15 60.9167 -164.3333 256° West 480 552 32,000  Level Anchorage Center
Sun 12:17:16 60.8667 -164.6000 249° West 470 541 32,000  Level Anchorage Center
Sun 12:18:16 60.8333 -164.8667 256° West 480 552 32,000  Level Anchorage Center
Sun 12:19:17 60.8000 -165.1167 255° West 470 541 32,000  Level Anchorage Center
Sun 12:20:08 60.7500 -165.3833 249° West 470 541 32,000  Level Anchorage Center
Sun 12:21:08 60.7167 -165.6500 256° West 480 552 32,000  Level Anchorage Center
Sun 12:22:08 60.6667 -165.9000 248° West 470 541 32,000  Level Anchorage Center
Sun 12:23:08 60.6333 -166.1500 255° West 480 552 32,000  Level Anchorage Center
Sun 12:24:09 60.5833 -166.4167 249° West 470 541 32,000  Level Anchorage Center
Sun 12:25:08 60.5333 -166.6667 248° West 470 541 32,000  Level Anchorage Center
Sun 12:26:08 60.5000 -166.9167 255° West 470 541 32,000  Level Anchorage Center
Sun 12:27:09 60.4500 -167.1833 249° West 470 541 32,000  Level Anchorage Center
Sun 12:28:09 60.4000 -167.4333 248° West 470 541 32,000  Level Anchorage Center
Sun 12:29:09 60.3667 -167.6833 255° West 470 541 32,000  Level Anchorage Center
Sun 12:30:09 60.3167 -167.9333 248° West 470 541 32,000  Level Anchorage Center
Sun 12:31:09 60.2667 -168.1833 248° West 470 541 32,000  Level Anchorage Center
Sun 12:32:09 60.2333 -168.3833 252° West 460 529 32,000  Level Anchorage Center
Sun 12:33:09 60.1833 -168.6167 247° West 460 529 32,000  Level Anchorage Center
Sun 12:34:09 60.1500 -168.8500 254° West 460 529 32,000  Level Anchorage Center
Sun 12:35:09 60.1000 -169.1000 248° West 460 529 32,000  Level Anchorage Center
Sun 12:36:09 60.0500 -169.3333 247° West 460 529 32,000  Level Anchorage Center
Sun 12:37:09 60.0000 -169.5833 248° West 460 529 32,000  Level Anchorage Center
Sun 12:38:09 59.9667 -169.8167 254° West 460 529 32,000  Level Anchorage Center
Sun 12:39:10 59.9167 -170.0500 247° West 460 529 32,000  Level Anchorage Center
Sun 12:40:10 59.8667 -170.3167 250° West 460 529 32,000  Level Anchorage Center
Sun 12:41:10 59.8167 -170.5500 247° West 440 506 32,000  Level Anchorage Center
Sun 12:42:10 59.7667 -170.7833 247° West 450 518 32,000  Level Anchorage Center
Sun 12:43:10 59.7167 -171.0167 247° West 450 518 32,000  Level Anchorage Center
Sun 12:44:10 59.6667 -171.2333 246° West 440 506 32,000  Level Anchorage Center
Sun 12:45:10 59.6167 -171.4667 247° West 440 506 32,000  Level Anchorage Center
Sun 12:46:10 59.5667 -171.6833 246° West 440 506 32,000  Level Anchorage Center
Sun 12:47:10 59.5333 -171.9000 253° West 440 506 32,000  Level Anchorage Center
Sun 12:48:10 59.4833 -172.1333 247° West 430 495 32,000  Level Anchorage Center
Sun 12:49:10 59.4333 -172.3500 246° West 430 495 32,000  Level Anchorage Center
Sun 12:50:10 59.4000 -172.5667 253° West 420 483 32,000  Level Anchorage Center
Sun 12:51:10 59.3500 -172.7833 246° West 430 495 32,000  Level Anchorage Center
Sun 12:52:10 59.3000 -172.9833 244° Southwest 420 483 32,000  Level Anchorage Center
Sun 12:53:11 59.2667 -173.2000 253° West 410 472 32,000  Level Anchorage Center
Sun 12:54:10 59.2167 -173.4000 244° Southwest 410 472 32,000  Level Anchorage Center
Sun 12:55:10 59.1833 -173.6000 252° West 400 460 32,000  Level Anchorage Center
Sun 12:56:11 59.1333 -173.8000 244° Southwest 390 449 32,000  Level Anchorage Center
Sun 12:57:11 59.1000 -173.9833 251° West 370 426 32,000  Level Anchorage Center
Sun 12:58:11 59.0500 -174.1833 244° Southwest 390 449 32,000  Level Anchorage Center
Sun 12:59:11 59.0000 -174.3833 244° Southwest 390 449 32,000  Level Anchorage Center
Sun 13:00:11 58.9667 -174.5667 251° West 370 426 32,000  Level Anchorage Center
Sun 13:01:11 58.9167 -174.7500 242° Southwest 370 426 32,000  Level Anchorage Center
Sun 13:02:11 58.8833 -174.9333 251° West 370 426 32,000  Level Anchorage Center
Sun 13:03:11 58.8500 -175.1167 251° West 360 414 32,000  Level Anchorage Center
Sun 13:04:11 58.8000 -175.3000 242° Southwest 370 426 32,000  Level Anchorage Center
Sun 13:05:11 58.7667 -175.4667 249° West 370 426 32,000  Level Anchorage Center
Sun 13:08:00 58.6760 -175.8479 246° West  Level FlightAware Approximate
Sun 13:10:37 58.5333 -176.4333 245° Southwest 340 391 32,000  Level Anchorage Center
Sun 13:11:37 58.4833 -176.6167 243° Southwest 370 426 32,000  Level Anchorage Center
Sun 13:14:31 58.3833 -177.1000 245° Southwest 365 420 32,000  Level Anchorage Center
Sun 13:15:00 58.3180 -177.3002 245° Southwest  Level FlightAware Approximate
Sun 13:16:09 58.3167 -177.4000 244° Southwest 367 422 32,000  Level Anchorage Center
Sun 13:20:00 58.1022 -178.2088 244° Southwest 365 420 32,000  Level FlightAware Transoceanic
Sun 13:21:00 58.0544 -178.3919 244° Southwest 365 420 32,000  Level FlightAware Transoceanic
Sun 13:22:00 58.0303 -178.5111 243° Southwest 367 422 32,000  Level FlightAware Transoceanic
Sun 13:23:00 57.9817 -178.6945 243° Southwest 367 422 32,000  Level FlightAware Transoceanic
Sun 13:24:00 57.9328 -178.8775 243° Southwest 367 422 32,000  Level FlightAware Transoceanic
Sun 13:25:00 57.8836 -179.0599 243° Southwest 367 422 32,000  Level FlightAware Transoceanic
Sun 13:25:42 57.8833 -179.0667 243° Southwest 367 422 32,000  Level Anchorage Center
Sun 13:26:00 57.8342 -179.2419 243° Southwest 367 422 32,000  Level FlightAware Transoceanic
Sun 13:27:00 57.7845 -179.4233 243° Southwest 367 422 32,000  Level FlightAware Transoceanic
Sun 13:28:00 57.7345 -179.6042 243° Southwest 367 422 32,000  Level FlightAware Transoceanic
Sun 13:29:00 57.6843 -179.7847 242° Southwest 367 422 32,000  Level FlightAware Transoceanic
Sun 13:30:00 57.6338 -179.9646 242° Southwest 367 422 32,000  Level FlightAware Transoceanic
Sun 13:31:00 57.5831 179.8559 242° Southwest 367 422 32,000  Level FlightAware Transoceanic
Sun 13:32:00 57.5318 179.6712 242° Southwest 367 422 32,000  Level FlightAware Transoceanic
Sun 13:33:00 57.4806 179.4929 242° Southwest 367 422 32,000  Level FlightAware Transoceanic
Sun 13:34:00 57.4291 179.3151 242° Southwest 367 422 32,000  Level FlightAware Transoceanic
Sun 13:35:00 57.3774 179.1378 241° Southwest 367 422 32,000  Level FlightAware Transoceanic
Sun 13:35:14 57.4167 179.2833 242° Southwest 369 425 32,000  Level Anchorage Center
Sun 13:36:00 57.3254 178.9610 241° Southwest 367 422 32,000  Level FlightAware Transoceanic
Sun 13:37:00 57.2732 178.7847 241° Southwest 367 422 32,000  Level FlightAware Transoceanic
Sun 13:38:00 57.2207 178.6089 241° Southwest 367 422 32,000  Level FlightAware Transoceanic
Sun 13:39:00 57.1680 178.4336 241° Southwest 367 422 32,000  Level FlightAware Transoceanic
Sun 13:40:00 57.1150 178.2588 241° Southwest 367 422 32,000  Level FlightAware Transoceanic
Sun 13:41:00 57.0967 178.2077 241° Southwest 369 425 32,000  Level FlightAware Transoceanic
Sun 13:42:00 57.0424 178.0302 241° Southwest 369 425 32,000  Level FlightAware Transoceanic
Sun 13:43:00 56.9880 177.8533 240° Southwest 369 425 32,000  Level FlightAware Transoceanic
Sun 13:44:00 56.9332 177.6768 240° Southwest 369 425 32,000  Level FlightAware Transoceanic
Sun 13:44:54 56.9333 177.6667 240° Southwest 388 447 32,000  Level Anchorage Center
Sun 13:45:00 56.8783 177.5009 240° Southwest 369 425 32,000  Level FlightAware Transoceanic
Sun 13:46:00 56.8231 177.3255 240° Southwest 369 425 32,000  Level FlightAware Transoceanic
Sun 13:46:46 56.8333 177.3500 240° Southwest 391 450 32,000  Level Anchorage Center
Sun 13:47:00 56.7676 177.1507 240° Southwest 369 425 32,000  Level FlightAware Transoceanic
Sun 13:48:00 56.7119 176.9763 240° Southwest 369 425 32,000  Level FlightAware Transoceanic
Sun 13:49:00 56.6559 176.8025 240° Southwest 369 425 32,000  Level FlightAware Transoceanic
Sun 13:50:00 56.5998 176.6292 239° Southwest 369 425 32,000  Level FlightAware Transoceanic
Sun 13:51:00 56.5786 176.5561 239° Southwest 388 447 32,000  Level FlightAware Transoceanic
Sun 13:52:00 56.5186 176.3730 239° Southwest 388 447 32,000  Level FlightAware Transoceanic
Sun 13:53:00 56.4952 176.3035 239° Southwest 391 450 32,000  Level FlightAware Transoceanic
Sun 13:54:00 56.4380 176.1309 239° Southwest 391 450 32,000  Level FlightAware Transoceanic
Sun 13:54:33 56.4167 176.0833 239° Southwest 394 453 32,000  Level Anchorage Center
Sun 13:55:00 56.3805 175.9589 239° Southwest 391 450 32,000  Level FlightAware Transoceanic
Sun 13:56:00 56.3228 175.7873 239° Southwest 391 450 32,000  Level FlightAware Transoceanic
Sun 13:57:00 56.2649 175.6163 239° Southwest 391 450 32,000  Level FlightAware Transoceanic
Sun 13:58:00 56.2068 175.4458 238° Southwest 391 450 32,000  Level FlightAware Transoceanic
Sun 13:59:00 56.1484 175.2758 238° Southwest 391 450 32,000  Level FlightAware Transoceanic
Sun 14:00:00 56.0866 175.1095 238° Southwest 394 453 32,000  Level FlightAware Transoceanic
Sun 14:01:00 56.0309 174.9488 238° Southwest 394 453 32,000  Level FlightAware Transoceanic
Sun 14:02:00 55.9749 174.7886 238° Southwest 394 453 32,000  Level FlightAware Transoceanic
Sun 14:03:00 55.9188 174.6288 238° Southwest 394 453 32,000  Level FlightAware Transoceanic
Sun 14:04:00 55.8624 174.4695 238° Southwest 394 453 32,000  Level FlightAware Transoceanic
Sun 14:05:00 55.8058 174.3107 238° Southwest 394 453 32,000  Level FlightAware Transoceanic
Sun 14:05:41 55.7667 174.2500 237° Southwest 380 437 32,000  Level Anchorage Center
Sun 14:06:00 55.7491 174.1523 237° Southwest 394 453 32,000  Level FlightAware Transoceanic
Sun 14:06:41 55.7333 174.1167 246° West 370 426 32,000  Level Anchorage Center
Sun 14:07:00 55.6921 173.9944 237° Southwest 394 453 32,000  Level FlightAware Transoceanic
Sun 14:07:41 55.6667 173.9333 237° Southwest 390 449 32,000  Level Anchorage Center
Sun 14:08:00 55.6349 173.8370 237° Southwest 394 453 32,000  Level FlightAware Transoceanic
Sun 14:08:41 55.6167 173.7833 239° Southwest 400 460 32,000  Level Anchorage Center
Sun 14:09:00 55.5775 173.6800 237° Southwest 394 453 32,000  Level FlightAware Transoceanic
Sun 14:09:41 55.5500 173.6167 235° Southwest 390 449 32,000  Level Anchorage Center
Sun 14:10:00 55.5199 173.5235 237° Southwest 394 453 32,000  Level FlightAware Transoceanic
Sun 14:10:41 55.5000 173.4833 237° Southwest 400 460 32,000  Level Anchorage Center
Sun 14:11:41 55.4333 173.3167 235° Southwest 380 437 32,000  Level Anchorage Center
Sun 14:12:41 55.3667 173.1333 237° Southwest 390 449 32,000 550 Level Anchorage Center
Sun 14:13:41 55.3167 173.0000 237° Southwest 390 449 33,100 992 Climbing Anchorage Center
Sun 14:14:42 55.2500 172.8167 238° Southwest 410 472 34,000 446 Climbing Anchorage Center
Sun 14:15:42 55.1833 172.6667 232° Southwest 410 472 34,000  Level Anchorage Center
Sun 14:16:42 55.1167 172.4833 238° Southwest 410 472 34,000  Level Anchorage Center
Sun 14:17:42 55.0667 172.3500 237° Southwest 410 472 34,000  Level Anchorage Center
Sun 14:18:42 55.0000 172.1667 238° Southwest 410 472 34,000  Level Anchorage Center
Sun 14:19:42 54.9167 171.9833 232° Southwest 420 483 34,000  Level Anchorage Center
Sun 14:20:42 54.8667 171.8333 240° Southwest 420 483 34,000  Level Anchorage Center
Sun 14:21:43 54.7833 171.6500 232° Southwest 420 483 34,000  Level Anchorage Center
Sun 14:22:42 54.7333 171.5167 237° Southwest 410 472 34,000  Level Anchorage Center
Sun 14:23:42 54.6667 171.3500 235° Southwest 410 472 34,000  Level Anchorage Center
Sun 14:24:42 54.6000 171.2000 233° Southwest 420 483 34,000  Level Anchorage Center
Sun 14:25:42 54.5333 171.0333 235° Southwest 410 472 34,000  Level Anchorage Center
Sun 14:26:43 54.4667 170.9000 229° Southwest 400 460 34,000  Level Anchorage Center
Sun 14:27:42 54.4000 170.7167 238° Southwest 410 472 34,000  Level Anchorage Center
Sun 14:28:43 54.3167 170.5500 229° Southwest 420 483 34,000  Level Anchorage Center
Sun 14:29:43 54.2667 170.4167 237° Southwest 410 472 34,000  Level Anchorage Center
Sun 14:30:43 54.1833 170.2333 232° Southwest 420 483 34,000  Level Anchorage Center
Sun 14:31:43 54.1333 170.1000 237° Southwest 410 472 34,000  Level Anchorage Center
Sun 14:32:43 54.0500 169.9333 230° Southwest 410 472 34,000  Level Anchorage Center
Sun 14:33:43 54.0000 169.8000 238° Southwest 420 483 34,000  Level Anchorage Center
Sun 14:35:43 53.8333 169.4500 231° Southwest 420 483 34,000  Level Anchorage Center
Sun 14:36:43 53.7833 169.3167 238° Southwest 400 460 34,000  Level Anchorage Center
Sun 14:37:43 53.7000 169.1333 233° Southwest 440 506 34,000  Level Anchorage Center
Sun 14:38:43 53.6500 168.9833 241° Southwest 440 506 34,000  Level Anchorage Center
Sun 14:40:00 53.5765 168.7604 241° Southwest  Level FlightAware Approximate
Sun 14:42:30 53.4500 168.3333 240° Southwest 438 504 34,000  Level Anchorage Center
Sun 14:42:58 53.4167 168.2333 240° Southwest 432 497 34,000  Level Anchorage Center
Sun 14:47:00 53.1641 167.5621 240° Southwest  Level FlightAware Approximate
Sun 14:48:00 53.0704 167.2611 239° Southwest 438 504 34,000  Level FlightAware Transoceanic
Sun 14:49:00 53.0399 167.1738 239° Southwest 432 497 34,000  Level FlightAware Transoceanic
Sun 14:50:00 52.9762 166.9990 239° Southwest 432 497 34,000  Level FlightAware Transoceanic
Sun 14:51:00 52.9123 166.8247 239° Southwest 432 497 34,000  Level FlightAware Transoceanic
Sun 14:52:00 52.8481 166.6510 238° Southwest 432 497 34,000  Level FlightAware Transoceanic
Sun 14:52:09 52.8333 166.6333 239° Southwest 440 506 34,000  Level Anchorage Center
Sun 14:53:00 52.7836 166.4777 238° Southwest 432 497 34,000  Level FlightAware Transoceanic
Sun 14:54:00 52.7189 166.3050 238° Southwest 432 497 34,000  Level FlightAware Transoceanic
Sun 14:55:00 52.6539 166.1328 238° Southwest 432 497 34,000  Level FlightAware Transoceanic
Sun 14:56:00 52.5887 165.9611 238° Southwest 432 497 34,000  Level FlightAware Transoceanic
Sun 14:57:00 52.5233 165.7899 238° Southwest 432 497 34,000  Level FlightAware Transoceanic
Sun 14:58:00 52.4357 165.5812 238° Southwest 440 506 34,000  Level FlightAware Transoceanic
Sun 14:59:00 52.3686 165.4077 238° Southwest 440 506 34,000  Level FlightAware Transoceanic
Sun 15:00:00 52.3012 165.2347 237° Southwest 440 506 34,000  Level FlightAware Transoceanic
Sun 15:01:00 52.2335 165.0623 237° Southwest 440 506 34,000  Level FlightAware Transoceanic
Sun 15:01:38 52.1833 164.9667 237° Southwest 449 517 34,000  Level Anchorage Center
Sun 15:02:00 52.1656 164.8904 237° Southwest 440 506 34,000  Level FlightAware Transoceanic
Sun 15:03:00 52.0974 164.7189 237° Southwest 440 506 34,000  Level FlightAware Transoceanic
Sun 15:04:00 52.0290 164.5481 237° Southwest 440 506 34,000  Level FlightAware Transoceanic
Sun 15:05:00 51.9603 164.3777 237° Southwest 440 506 34,000  Level FlightAware Transoceanic
Sun 15:06:00 51.8914 164.2079 237° Southwest 440 506 34,000  Level FlightAware Transoceanic
Sun 15:07:00 51.7800 163.9610 237° Southwest 449 517 34,000  Level FlightAware Transoceanic
Sun 15:08:00 51.7120 163.7952 236° Southwest 449 517 34,000  Level FlightAware Transoceanic
Sun 15:09:00 51.6437 163.6299 236° Southwest 449 517 34,000  Level FlightAware Transoceanic
Sun 15:09:25 51.6500 163.6500 236° Southwest 453 521 34,000  Level Anchorage Center
Sun 15:10:00 51.5752 163.4650 236° Southwest 449 517 34,000  Level FlightAware Transoceanic
Sun 15:11:00 51.5064 163.3006 236° Southwest 449 517 34,000  Level FlightAware Transoceanic
Sun 15:12:00 51.4375 163.1368 236° Southwest 449 517 34,000  Level FlightAware Transoceanic
Sun 15:12:13 51.5167 163.3167 236° Southwest 453 521 34,000  Level Anchorage Center
Sun 15:13:00 51.3683 162.9734 236° Southwest 449 517 34,000  Level FlightAware Transoceanic
Sun 15:14:00 51.2988 162.8106 236° Southwest 449 517 34,000  Level FlightAware Transoceanic
Sun 15:15:00 51.2342 162.6636 236° Southwest 453 521 34,000  Level FlightAware Transoceanic
Sun 15:16:00 51.1641 162.5010 235° Southwest 453 521 34,000  Level FlightAware Transoceanic
Sun 15:17:00 51.0938 162.3388 235° Southwest 453 521 34,000  Level FlightAware Transoceanic
Sun 15:18:00 51.0264 162.1752 235° Southwest 453 521 34,000  Level FlightAware Transoceanic
Sun 15:19:00 50.9554 162.0142 235° Southwest 453 521 34,000  Level FlightAware Transoceanic
Sun 15:20:00 50.8843 161.8536 235° Southwest 453 521 34,000  Level FlightAware Transoceanic
Sun 15:21:00 50.8129 161.6935 235° Southwest 453 521 34,000  Level FlightAware Transoceanic
Sun 15:22:00 50.7413 161.5339 235° Southwest 453 521 34,000  Level FlightAware Transoceanic
Sun 15:23:00 50.6695 161.3747 234° Southwest 453 521 34,000  Level FlightAware Transoceanic
Sun 15:24:00 50.5975 161.2161 234° Southwest 453 521 34,000  Level FlightAware Transoceanic
Sun 15:25:00 50.5252 161.0580 234° Southwest 453 521 34,000  Level FlightAware Transoceanic
Sun 15:26:00 50.4528 160.9003 234° Southwest 453 521 34,000  Level FlightAware Transoceanic
Sun 15:26:29 50.5000 161.0000 234° Southwest 459 528 34,000  Level Anchorage Center
Sun 15:27:00 50.3801 160.7431 234° Southwest 453 521 34,000  Level FlightAware Transoceanic
Sun 15:28:00 50.3072 160.5864 234° Southwest 453 521 34,000  Level FlightAware Transoceanic
Sun 15:29:00 50.2341 160.4302 234° Southwest 453 521 34,000  Level FlightAware Transoceanic
Sun 15:29:08 50.2000 160.3833 234° Southwest 458 527 34,000  Level Anchorage Center
Sun 15:30:00 50.1608 160.2745 234° Southwest 453 521 34,000  Level FlightAware Transoceanic
Sun 15:31:00 50.0873 160.1192 233° Southwest 453 521 34,000  Level FlightAware Transoceanic
Sun 15:31:46 50.1000 160.1500 234° Southwest 457 526 34,000  Level Anchorage Center
Sun 15:32:00 49.9541 159.8393 233° Southwest 459 528 34,000  Level FlightAware Transoceanic
Sun 15:33:00 49.8752 159.6757 233° Southwest 459 528 34,000  Level FlightAware Transoceanic
Sun 15:34:00 49.7960 159.5126 233° Southwest 459 528 34,000  Level FlightAware Transoceanic
Sun 15:35:00 49.7167 159.3500 233° Southwest 458 527 34,000  Level FlightAware Transoceanic
Sun 15:36:00 49.6412 159.1959 233° Southwest 458 527 34,000  Level FlightAware Transoceanic
Sun 15:37:00 49.5655 159.0422 233° Southwest 458 527 34,000  Level FlightAware Transoceanic
Sun 15:38:00 49.4896 158.8891 233° Southwest 457 526 34,000  Level FlightAware Transoceanic
Sun 15:39:00 49.4135 158.7364 232° Southwest 457 526 34,000  Level FlightAware Transoceanic
Sun 15:40:00 49.3372 158.5841 232° Southwest 457 526 34,000  Level FlightAware Transoceanic
Sun 15:41:00 49.2607 158.4324 232° Southwest 457 526 34,000  Level FlightAware Transoceanic
Sun 15:42:00 49.1839 158.2811 232° Southwest 457 526 34,000  Level FlightAware Transoceanic
Sun 15:43:00 49.1070 158.1303 232° Southwest 457 526 34,000  Level FlightAware Transoceanic
Sun 15:44:00 49.0299 157.9799 232° Southwest 457 526 34,000  Level FlightAware Transoceanic
Sun 15:45:00 48.9527 157.8301 232° Southwest 457 526 34,000  Level FlightAware Transoceanic
Sun 15:46:00 48.8752 157.6806 232° Southwest 457 526 34,000  Level FlightAware Transoceanic
Sun 15:47:00 48.7975 157.5317 232° Southwest 457 526 34,000  Level FlightAware Transoceanic
Sun 15:48:00 48.7196 157.3832 231° Southwest 457 526 34,000  Level FlightAware Transoceanic
Sun 15:49:00 48.6416 157.2352 231° Southwest 457 526 34,000  Level FlightAware Transoceanic
Sun 15:50:00 48.5633 157.0876 231° Southwest 457 526 34,000  Level FlightAware Transoceanic
Sun 15:51:00 48.4849 156.9405 231° Southwest 457 526 34,000  Level FlightAware Transoceanic
Sun 15:52:00 48.4063 156.7938 231° Southwest 457 526 34,000  Level FlightAware Transoceanic
Sun 15:53:00 48.3274 156.6476 231° Southwest 457 526 34,000  Level FlightAware Transoceanic
Sun 15:54:00 48.2485 156.5019 231° Southwest 457 526 34,000  Level FlightAware Transoceanic
Sun 15:55:00 48.1693 156.3566 231° Southwest 457 526 34,000  Level FlightAware Transoceanic
Sun 15:56:00 48.0899 156.2117 231° Southwest 457 526 34,000  Level FlightAware Transoceanic
Sun 15:57:00 48.0104 156.0673 230° Southwest 457 526 34,000  Level FlightAware Transoceanic
Sun 15:58:00 47.9307 155.9233 230° Southwest 457 526 34,000  Level FlightAware Transoceanic
Sun 15:59:00 47.8508 155.7798 230° Southwest 457 526 34,000  Level FlightAware Transoceanic
Sun 16:00:00 47.7707 155.6367 230° Southwest 457 526 34,000  Level FlightAware Transoceanic
Sun 16:01:00 47.6904 155.4941 230° Southwest 457 526 34,000  Level FlightAware Transoceanic
Sun 16:02:00 47.6100 155.3519 230° Southwest 457 526 34,000  Level FlightAware Transoceanic
Sun 16:03:00 47.5294 155.2101 230° Southwest 457 526 34,000  Level FlightAware Transoceanic
Sun 16:04:00 47.4486 155.0688 230° Southwest 457 526 34,000  Level FlightAware Transoceanic
Sun 16:05:00 47.3676 154.9279 230° Southwest 457 526 34,000  Level FlightAware Transoceanic
Sun 16:06:00 47.2865 154.7874 230° Southwest 457 526 34,000  Level FlightAware Transoceanic
Sun 16:07:00 47.2052 154.6474 229° Southwest 457 526 34,000  Level FlightAware Transoceanic
Sun 16:08:00 47.1238 154.5078 229° Southwest 457 526 34,000  Level FlightAware Transoceanic
Sun 16:09:00 47.0421 154.3686 229° Southwest 457 526 34,000  Level FlightAware Transoceanic
Sun 16:10:00 46.9603 154.2299 229° Southwest 457 526 34,000  Level FlightAware Transoceanic
Sun 16:11:00 46.8783 154.0915 229° Southwest 457 526 34,000  Level FlightAware Transoceanic
Sun 16:12:00 46.7962 153.9536 229° Southwest 457 526 34,000  Level FlightAware Transoceanic
Sun 16:13:00 46.7139 153.8161 229° Southwest 457 526 34,000  Level FlightAware Transoceanic
Sun 16:14:00 46.6314 153.6791 229° Southwest 457 526 34,000  Level FlightAware Transoceanic
Sun 16:15:00 46.5488 153.5424 229° Southwest 457 526 34,000  Level FlightAware Transoceanic
Sun 16:16:00 46.4660 153.4062 229° Southwest 457 526 34,000  Level FlightAware Transoceanic
Sun 16:17:00 46.3831 153.2704 228° Southwest 457 526 34,000  Level FlightAware Transoceanic
Sun 16:18:00 46.2999 153.1350 228° Southwest 457 526 34,000 -55 Level FlightAware Transoceanic
Sun 16:19:00 46.2211 153.0071 228° Southwest  Level FlightAware Approximate
Sun 16:20:00 46.1421 152.8796 228° Southwest  Level FlightAware Approximate
Sun 16:21:00 46.1457 152.8877 228° Southwest  Level FlightAware Approximate
Sun 16:22:00 46.0658 152.7616 228° Southwest  Level FlightAware Approximate
Sun 16:23:00 45.9857 152.6359 227° Southwest  Level FlightAware Approximate
Sun 16:24:00 45.9054 152.5106 227° Southwest  Level FlightAware Approximate
Sun 16:25:00 45.8250 152.3856 227° Southwest  Level FlightAware Approximate
Sun 16:26:00 45.7445 152.2610 227° Southwest  Level FlightAware Approximate
Sun 16:27:00 45.6639 152.1367 227° Southwest  Level FlightAware Approximate
Sun 16:28:00 45.5834 152.0125 227° Southwest  Level FlightAware Approximate
Sun 16:29:00 45.5027 151.8886 227° Southwest  Level FlightAware Approximate
Sun 16:30:00 45.4218 151.7651 227° Southwest  Level FlightAware Approximate
Sun 16:31:00 45.3409 151.6420 227° Southwest  Level FlightAware Approximate
Sun 16:32:00 45.2598 151.5192 227° Southwest  Level FlightAware Approximate
Sun 16:33:00 45.1785 151.3968 227° Southwest  Level FlightAware Approximate
Sun 16:34:00 45.0972 151.2747 227° Southwest  Level FlightAware Approximate
Sun 16:35:00 45.0157 151.1530 227° Southwest  Level FlightAware Approximate
Sun 16:36:00 44.9341 151.0316 226° Southwest  Level FlightAware Approximate
Sun 16:37:00 44.8523 150.9106 226° Southwest  Level FlightAware Approximate
Sun 16:38:00 44.7704 150.7899 226° Southwest  Level FlightAware Approximate
Sun 16:39:00 44.6884 150.6695 226° Southwest  Level FlightAware Approximate
Sun 16:40:00 44.6063 150.5495 226° Southwest  Level FlightAware Approximate
Sun 16:41:00 44.5241 150.4298 226° Southwest  Level FlightAware Approximate
Sun 16:42:00 44.4417 150.3105 226° Southwest  Level FlightAware Approximate
Sun 16:43:00 44.3592 150.1915 226° Southwest  Level FlightAware Approximate
Sun 16:44:00 44.2766 150.0728 226° Southwest  Level FlightAware Approximate
Sun 16:45:00 44.1938 149.9545 226° Southwest  Level FlightAware Approximate
Sun 16:46:00 44.1109 149.8365 226° Southwest  Level FlightAware Approximate
Sun 16:47:00 44.0280 149.7187 226° Southwest  Level FlightAware Approximate
Sun 16:48:00 43.9453 149.6009 226° Southwest  Level FlightAware Approximate
Sun 16:49:00 43.8624 149.4834 226° Southwest  Level FlightAware Approximate
Sun 16:50:00 43.7794 149.3662 226° Southwest  Level FlightAware Approximate
Sun 16:51:00 43.6962 149.2494 225° Southwest  Level FlightAware Approximate
Sun 16:52:00 43.6130 149.1329 225° Southwest  Level FlightAware Approximate
Sun 16:53:00 43.5296 149.0168 225° Southwest  Level FlightAware Approximate
Sun 16:53:20 43.3200 148.7200 225° Southwest 431 496 32,000  Level FlightAware ADS-B
Sun 16:53:57 43.2660 148.6460 225° Southwest 438 504 32,000  Level FlightAware ADS-B
Sun 16:54:00 43.4461 148.9009 225° Southwest  Level FlightAware Approximate
Sun 16:54:32 43.2180 148.5810 225° Southwest 436 502 32,000  Level FlightAware ADS-B
Sun 16:55:13 43.1540 148.4940 225° Southwest 442 509 32,000  Level FlightAware ADS-B
Sun 16:55:48 43.1070 148.4290 225° Southwest 448 516 32,000  Level FlightAware ADS-B
Sun 16:56:24 43.0510 148.3540 224° Southwest 449 517 32,000  Level FlightAware ADS-B
Sun 16:56:59 42.9980 148.2820 225° Southwest 451 519 32,000  Level FlightAware ADS-B
Sun 16:57:34 42.9450 148.2110 224° Southwest 454 522 32,000  Level FlightAware ADS-B
Sun 16:58:10 42.8960 148.1460 224° Southwest 456 525 32,000  Level FlightAware ADS-B
Sun 16:58:49 42.8510 148.0860 224° Southwest 457 526 32,000  Level FlightAware ADS-B
Sun 16:59:26 42.7750 147.9830 225° Southwest 458 527 32,000  Level FlightAware ADS-B
Sun 17:00:01 42.7220 147.9130 224° Southwest 458 527 32,000  Level FlightAware ADS-B
Sun 17:00:36 42.6690 147.8430 224° Southwest 453 521 32,000  Level FlightAware ADS-B
Sun 17:01:11 42.6170 147.7730 225° Southwest 455 524 32,000  Level FlightAware ADS-B
Sun 17:01:46 42.5640 147.7030 224° Southwest 451 519 32,000  Level FlightAware ADS-B
Sun 17:02:22 42.5090 147.6310 224° Southwest 458 527 32,000  Level FlightAware ADS-B
Sun 17:02:57 42.4550 147.5590 225° Southwest 458 527 32,000  Level FlightAware ADS-B
Sun 17:03:37 42.3940 147.4800 224° Southwest 458 527 32,000  Level FlightAware ADS-B
Sun 17:04:13 42.3400 147.4090 224° Southwest 456 525 32,000  Level FlightAware ADS-B
Sun 17:04:53 42.2760 147.3250 224° Southwest 456 525 32,000  Level FlightAware ADS-B
Sun 17:05:28 42.2220 147.2550 224° Southwest 455 524 32,000  Level FlightAware ADS-B
Sun 17:06:03 42.1690 147.1860 224° Southwest 454 522 32,000  Level FlightAware ADS-B
Sun 17:06:43 42.1080 147.1060 224° Southwest 452 520 32,000  Level FlightAware ADS-B
Sun 17:07:18 42.0540 147.0370 224° Southwest 451 519 32,000  Level FlightAware ADS-B
Sun 17:07:43 42.0170 146.9890 224° Southwest 451 519 32,000  Level FlightAware ADS-B
Sun 17:08:23 41.9560 146.9100 224° Southwest 449 517 32,000  Level FlightAware ADS-B
Sun 17:08:59 41.9020 146.8410 224° Southwest 447 514 32,000  Level FlightAware ADS-B
Sun 17:09:34 41.8490 146.7730 224° Southwest 451 519 32,000  Level FlightAware ADS-B
Sun 17:10:09 41.7970 146.7060 224° Southwest 449 517 32,000  Level FlightAware ADS-B
Sun 17:10:44 41.7430 146.6370 224° Southwest 448 516 32,000  Level FlightAware ADS-B
Sun 17:11:27 41.6840 146.5620 224° Southwest 447 514 32,000  Level FlightAware ADS-B
Sun 17:11:59 41.6310 146.4940 224° Southwest 447 514 32,000  Level FlightAware ADS-B
Sun 17:12:34 41.5790 146.4280 224° Southwest 447 514 32,000  Level FlightAware ADS-B
Sun 17:13:14 41.5190 146.3520 223° Southwest 447 514 32,000  Level FlightAware ADS-B
Sun 17:13:44 41.4750 146.2970 223° Southwest 447 514 32,000  Level FlightAware ADS-B
Sun 17:14:19 41.4220 146.2300 223° Southwest 445 512 32,000  Level FlightAware ADS-B
Sun 17:14:59 41.3610 146.1530 223° Southwest 444 511 32,000  Level FlightAware ADS-B
Sun 17:15:34 41.3100 146.0890 223° Southwest 442 509 32,000  Level FlightAware ADS-B
Sun 17:16:04 41.2640 146.0330 222° Southwest 441 507 32,000  Level FlightAware ADS-B
Sun 17:16:44 41.2060 145.9600 223° Southwest 439 505 32,000  Level FlightAware ADS-B
Sun 17:17:19 41.1540 145.8950 223° Southwest 437 503 32,000  Level FlightAware ADS-B
Sun 17:17:49 41.1100 145.8400 223° Southwest 430 495 32,000  Level FlightAware ADS-B
Sun 17:18:24 41.0580 145.7760 223° Southwest 429 494 32,000  Level FlightAware ADS-B
Sun 17:19:04 41.0040 145.7090 223° Southwest 430 495 32,000  Level FlightAware ADS-B
Sun 17:19:42 40.9510 145.6430 223° Southwest 436 502 32,000  Level FlightAware ADS-B
Sun 17:20:19 40.8890 145.5680 222° Southwest 438 504 32,000  Level FlightAware ADS-B
Sun 17:20:54 40.8360 145.5030 223° Southwest 439 505 32,000  Level FlightAware ADS-B
Sun 17:21:29 40.7870 145.4420 223° Southwest 439 505 32,000  Level FlightAware ADS-B
Sun 17:22:04 40.7330 145.3760 223° Southwest 438 504 32,000  Level FlightAware ADS-B
Sun 17:22:34 40.6880 145.3220 222° Southwest 438 504 32,000  Level FlightAware ADS-B
Sun 17:23:19 40.6200 145.2390 223° Southwest 441 507 32,000  Level FlightAware ADS-B
Sun 17:24:05 40.5590 145.1660 222° Southwest 441 507 32,000  Level FlightAware ADS-B
Sun 17:24:52 40.4890 145.0810 223° Southwest 440 506 32,000  Level FlightAware ADS-B
Sun 17:25:36 40.4210 144.9990 223° Southwest 438 504 32,000  Level FlightAware ADS-B
Sun 17:26:19 40.3520 144.9150 223° Southwest 440 506 32,000  Level FlightAware ADS-B
Sun 17:26:49 40.3100 144.8640 223° Southwest 440 506 32,000  Level FlightAware ADS-B
Sun 17:27:32 40.2490 144.7910 222° Southwest 440 506 32,000  Level FlightAware ADS-B
Sun 17:28:08 40.2020 144.7370 221° Southwest 440 506 32,000  Level FlightAware ADS-B
Sun 17:28:45 40.1550 144.6810 222° Southwest 440 506 32,000  Level FlightAware ADS-B
Sun 17:29:21 40.1080 144.6260 222° Southwest 440 506 32,000  Level FlightAware ADS-B
Sun 17:29:57 40.0620 144.5720 222° Southwest 440 506 32,000  Level FlightAware ADS-B
Sun 17:30:32 40.0170 144.5190 222° Southwest 440 506 32,000  Level FlightAware ADS-B
Sun 17:31:09 39.9700 144.4630 222° Southwest 440 506 32,000  Level FlightAware ADS-B
Sun 17:31:45 39.9230 144.4080 222° Southwest 440 506 32,000  Level FlightAware ADS-B
Sun 17:32:21 39.8770 144.3540 222° Southwest 440 506 32,000  Level FlightAware ADS-B
Sun 17:32:57 39.8310 144.3000 222° Southwest 440 506 32,000  Level FlightAware ADS-B
Sun 17:33:34 39.7830 144.2440 222° Southwest 440 506 32,000  Level FlightAware ADS-B
Sun 17:34:10 39.7370 144.1900 222° Southwest 440 506 32,000  Level FlightAware ADS-B
Sun 17:34:46 39.5910 144.0140 223° Southwest 439 505 32,000  Level FlightAware ADS-B
Sun 17:35:16 39.5470 143.9630 222° Southwest 440 506 32,000  Level FlightAware ADS-B
Sun 17:35:56 39.4800 143.8850 222° Southwest 440 506 32,000  Level FlightAware ADS-B
Sun 17:36:31 39.4260 143.8230 222° Southwest 440 506 32,000  Level FlightAware ADS-B
Sun 17:37:06 39.3710 143.7590 222° Southwest 440 506 32,000  Level FlightAware ADS-B
Sun 17:37:36 39.3280 143.7100 221° Southwest 440 506 32,000  Level FlightAware ADS-B
Sun 17:38:16 39.2680 143.6400 222° Southwest 440 506 32,000  Level FlightAware ADS-B
Sun 17:38:51 39.2100 143.5740 221° Southwest 439 505 32,000  Level FlightAware ADS-B
Sun 17:39:26 39.1560 143.5120 222° Southwest 439 505 32,000  Level FlightAware ADS-B
Sun 17:40:01 39.0980 143.4510 219° Southwest 453 521 32,000  Level FlightAware ADS-B
Sun 17:40:36 39.0370 143.4030 211° Southwest 459 528 32,000  Level FlightAware ADS-B
Sun 17:41:11 38.9680 143.3620 205° Southwest 461 531 32,000  Level FlightAware ADS-B
Sun 17:41:47 38.8970 143.3220 204° Southwest 461 531 32,000  Level FlightAware ADS-B
Sun 17:42:21 38.8280 143.2830 204° Southwest 460 529 32,000  Level FlightAware ADS-B
Sun 17:42:56 38.7590 143.2430 204° Southwest 460 529 32,000  Level FlightAware ADS-B
Sun 17:43:31 38.6910 143.2040 204° Southwest 460 529 32,000  Level FlightAware ADS-B
Sun 17:44:06 38.6270 143.1670 204° Southwest 460 529 32,000  Level FlightAware ADS-B
Sun 17:44:41 38.5520 143.1240 204° Southwest 460 529 32,000  Level FlightAware ADS-B
Sun 17:45:18 38.4820 143.0840 204° Southwest 460 529 32,000  Level FlightAware ADS-B
Sun 17:45:51 38.4150 143.0460 204° Southwest 461 531 32,000  Level FlightAware ADS-B
Sun 17:46:26 38.3440 143.0060 204° Southwest 463 533 32,000  Level FlightAware ADS-B
Sun 17:47:01 38.2760 142.9670 204° Southwest 463 533 32,000  Level FlightAware ADS-B
Sun 17:47:36 38.2060 142.9270 204° Southwest 472 543 32,000  Level FlightAware ADS-B
Sun 17:48:10 38.1360 142.8880 204° Southwest 471 542 32,000  Level FlightAware ADS-B
Sun 17:48:50 38.0560 142.8430 204° Southwest 461 531 32,000  Level FlightAware ADS-B
Sun 17:49:25 37.9870 142.8040 204° Southwest 461 531 32,000  Level FlightAware ADS-B
Sun 17:50:05 37.9070 142.7590 204° Southwest 462 532 32,000  Level FlightAware ADS-B
Sun 17:50:40 37.8380 142.7200 204° Southwest 463 533 32,000  Level FlightAware ADS-B
Sun 17:51:15 37.7670 142.6810 203° Southwest 471 542 32,000  Level FlightAware ADS-B
Sun 17:51:50 37.6990 142.6430 204° Southwest 472 543 32,000  Level FlightAware ADS-B
Sun 17:52:25 37.6280 142.6040 204° Southwest 473 544 32,000  Level FlightAware ADS-B
Sun 17:53:00 37.5570 142.5640 204° Southwest 475 547 32,000  Level FlightAware ADS-B
Sun 17:53:35 37.4880 142.5260 204° Southwest 473 544 32,000  Level FlightAware ADS-B
Sun 17:54:10 37.4180 142.4870 204° Southwest 472 543 32,000  Level FlightAware ADS-B
Sun 17:54:50 37.3390 142.4430 204° Southwest 462 532 32,000  Level FlightAware ADS-B
Sun 17:55:26 37.2700 142.4050 204° Southwest 460 529 32,000  Level FlightAware ADS-B
Sun 17:56:00 37.1970 142.3660 203° Southwest 457 526 32,000  Level FlightAware ADS-B
Sun 17:56:35 37.1300 142.3290 204° Southwest 457 526 32,000  Level FlightAware ADS-B
Sun 17:57:10 37.0610 142.2910 204° Southwest 455 524 32,000  Level FlightAware ADS-B
Sun 17:57:45 36.9930 142.2540 203° Southwest 454 522 32,000  Level FlightAware ADS-B
Sun 17:58:21 36.9250 142.2170 204° Southwest 454 522 32,000  Level FlightAware ADS-B
Sun 17:58:55 36.8550 142.1790 203° Southwest 454 522 32,000  Level FlightAware ADS-B
Sun 17:59:31 36.7880 142.1430 203° Southwest 454 522 32,000  Level FlightAware ADS-B
Sun 18:00:05 36.7190 142.1050 204° Southwest 454 522 32,000  Level FlightAware ADS-B
Sun 18:00:40 36.6510 142.0680 204° Southwest 454 522 32,000  Level FlightAware ADS-B
Sun 18:01:15 36.5820 142.0310 203° Southwest 454 522 32,000  Level FlightAware ADS-B
Sun 18:01:51 36.5140 141.9940 204° Southwest 454 522 32,000  Level FlightAware ADS-B
Sun 18:02:25 36.4440 141.9570 203° Southwest 456 525 32,000  Level FlightAware ADS-B
Sun 18:03:00 36.3750 141.9200 203° Southwest 458 527 32,000  Level FlightAware ADS-B
Sun 18:03:35 36.3070 141.8830 204° Southwest 459 528 32,000  Level FlightAware ADS-B
Sun 18:04:10 36.2370 141.8460 203° Southwest 460 529 32,000  Level FlightAware ADS-B
Sun 18:04:45 36.1670 141.8080 204° Southwest 470 541 32,000 -333 Level FlightAware ADS-B
Sun 18:05:22 36.0970 141.7710 203° Southwest 460 529 31,600 -1,800 Descending FlightAware ADS-B
Sun 18:05:55 36.0280 141.7340 203° Southwest 454 522 29,900 -3,882 Descending FlightAware ADS-B
Sun 18:06:30 35.9590 141.6980 203° Southwest 473 544 27,200 -4,615 Descending FlightAware ADS-B
Sun 18:07:00 35.8970 141.6660 203° Southwest 471 542 24,900 -3,943 Descending FlightAware ADS-B
Sun 18:07:40 35.8160 141.6230 203° Southwest 469 540 22,600 -3,465 Descending FlightAware ADS-B
Sun 18:08:11 35.7590 141.5900 205° Southwest 456 525 20,800 -3,222 Descending FlightAware ADS-B
Sun 18:08:34 35.7230 141.5480 223° Southwest 439 505 19,700 -2,571 Descending FlightAware ADS-B
Sun 18:08:53 35.7030 141.5100 237° Southwest 429 494 19,000 -2,294 Descending FlightAware ADS-B
Sun 18:09:08 35.6940 141.4740 253° West 421 484 18,400 -2,000 Descending FlightAware ADS-B
Sun 18:09:29 35.6920 141.4250 267° West 418 481 17,800 -1,946 Descending FlightAware ADS-B
Sun 18:09:45 35.6980 141.3860 281° West 419 482 17,200 -2,710 Descending FlightAware ADS-B
Sun 18:10:00 35.7050 141.3520 284° West 415 478 16,400 -3,300 Descending FlightAware ADS-B
Sun 18:10:25 35.7040 141.2940 269° West 412 474 15,000 -2,870 Descending FlightAware ADS-B
Sun 18:10:46 35.6940 141.2470 255° West 401 461 14,200 -2,500 Descending FlightAware ADS-B
Sun 18:11:01 35.6860 141.2150 253° West 394 453 13,500 -2,806 Descending FlightAware ADS-B
Sun 18:11:48 35.6610 141.1200 252° West 386 444 11,300 -2,169 Descending FlightAware ADS-B
Sun 18:12:24 35.6430 141.0530 252° West 348 400 10,500 -971 Descending FlightAware ADS-B
Sun 18:12:56 35.6270 140.9930 252° West 301 346 10,200 -720 Descending FlightAware ADS-B
Sun 18:13:14 35.6190 140.9650 251° West 284 327 9,900 -837 Descending FlightAware ADS-B
Sun 18:13:39 35.6110 140.9350 252° West 268 308 9,600 -1,286 Descending FlightAware ADS-B
Sun 18:13:56 35.5980 140.9040 243° Southwest 256 295 9,000 -1,733 Descending FlightAware ADS-B
Sun 18:14:24 35.5800 140.8760 232° Southwest 252 290 8,300 -1,565 Descending FlightAware ADS-B
Sun 18:14:42 35.5640 140.8530 229° Southwest 254 292 7,800 -857 Descending FlightAware ADS-B
Sun 18:15:06 35.5460 140.8260 231° Southwest 256 295 7,700 -133 Descending FlightAware ADS-B
Sun 18:15:27 35.5340 140.8030 237° Southwest 253 291 7,700  Level FlightAware ADS-B
Sun 18:15:47 35.5260 140.7730 252° West 252 290 7,700  Level FlightAware ADS-B
Sun 18:16:02 35.5200 140.7530 250° West 250 288 7,700  Level FlightAware ADS-B
Sun 18:16:32 35.5090 140.7130 251° West 252 290 7,700  Level FlightAware ADS-B
Sun 18:16:47 35.5040 140.6930 253° West 251 289 7,700  Level FlightAware ADS-B
Sun 18:17:11 35.4950 140.6600 251° West 249 287 7,700 -667 Level FlightAware ADS-B
Sun 18:17:32 35.4870 140.6320 251° West 240 276 7,200 -1,833 Descending FlightAware ADS-B
Sun 18:17:47 35.4840 140.6120 260° West 243 280 6,600 -2,400 Descending FlightAware ADS-B
Sun 18:18:07 35.4920 140.5870 291° West 241 277 5,800 -2,488 Descending FlightAware ADS-B
Sun 18:18:28 35.5060 140.5660 309° West 243 280 4,900 -2,743 Descending FlightAware ADS-B
Sun 18:18:42 35.5190 140.5520 319° Northwest 242 278 4,200 -2,077 Descending FlightAware ADS-B
Sun 18:18:54 35.5300 140.5440 329° Northwest 249 287 4,000 -558 Descending FlightAware ADS-B
Sun 18:19:25 35.5580 140.5240 330° Northwest 227 261 3,800 -409 Descending FlightAware ADS-B
Sun 18:19:38 35.5720 140.5140 330° Northwest 210 242 3,700 -727 Descending FlightAware ADS-B
Sun 18:19:58 35.5890 140.5020 330° Northwest 203 234 3,400 -1,050 Descending FlightAware ADS-B
Sun 18:20:18 35.6040 140.4910 329° Northwest 189 217 3,000 -1,080 Descending FlightAware ADS-B
Sun 18:20:48 35.6270 140.4750 331° Northwest 185 213 2,500 -980 Descending FlightAware ADS-B
Sun 18:21:07 35.6400 140.4650 328° Northwest 176 203 2,200 -1,050 Descending FlightAware ADS-B
Sun 18:21:28 35.6570 140.4530 330° Northwest 171 197 1,800 -1,000 Descending FlightAware ADS-B
Sun 18:21:43 35.6660 140.4460 328° Northwest 171 197 1,600 -857 Descending FlightAware ADS-B
Sun 18:22:03 35.6800 140.4360 330° Northwest 156 180 1,300 -720 Descending FlightAware ADS-B
Sun 18:22:33 35.6950 140.4250 329° Northwest 134 154 1,000 -712 Descending FlightAware ADS-B
Sun 18:23:02 35.7130 140.4130 332° Northwest 132 152 600 -840 Descending FlightAware ADS-B
Sun 18:23:23 35.7240 140.4050 329° Northwest 128 147 300 -750 Descending FlightAware ADS-B
Sun 18:23:42 35.7340 140.3980 330° Northwest 124 143 100 -632 Descending FlightAware ADS-B
Sun 18:23:52 35.7390 140.3940 327° Northwest 123 142 -600 Descending FlightAware ADS-B
Sun 18:24:20 35.7500 140.3860 329° Northwest 123 142  Level FlightAware ADS-B
Sun 18:26:00 35.7500 140.3833 253° West  Level FlightAware Approximate
Sun 18:27:00 35.7647 140.3864 253° West  Level Estimated
Sun 18:28:00 35.7647 140.3864 253° West  Level Estimated
Sun 18:29:00 35.7647 140.3864 253° West  Level Estimated
Sun 18:30:00 35.7647 140.3864 253° West  Level Estimated
Sun 18:31:00 35.7647 140.3864 253° West  Level Estimated
Sun 18:32:00 35.7647 140.3864 253° West  Level Estimated
Sun 18:33:00 35.7647 140.3864 253° West  Level Estimated
Sun 18:34:00 35.7647 140.3864 253° West  Level Estimated
Sun 18:35:00 35.7647 140.3864 253° West  Level Estimated
Sun 18:36:00 35.7647 140.3864 253° West  Level Estimated
Sun 18:37:00 35.7647 140.3864 253° West  Level Estimated
Sun 18:38:00 35.7647 140.3864 253° West  Level Estimated
Sun 18:39:00 35.7647 140.3864 253° West  Level Estimated
Sun 18:40:00 35.7647 140.3864 253° West  Level Estimated
Sun 18:41:00 35.7647 140.3864 253° West  Level Estimated
Sun 18:42:00 35.7647 140.3864 253° West  Level Estimated
Sun 18:43:00 35.7647 140.3864 253° West  Level Estimated

Login

Don't have an account? Register now (free) for customized features, flight alerts, and more!